sensor_id;sensor_type;location;lat;lon;timestamp;temperature;humidity
21502;DHT22;27639;48.674;9.242;2022-08-25T00:00:00;24.00;52.10
21502;DHT22;27639;48.674;9.242;2022-08-25T00:02:25;24.00;52.30
21502;DHT22;27639;48.674;9.242;2022-08-25T00:04:51;24.00;52.40
21502;DHT22;27639;48.674;9.242;2022-08-25T00:07:17;23.90;52.30
21502;DHT22;27639;48.674;9.242;2022-08-25T00:09:42;24.00;52.40
21502;DHT22;27639;48.674;9.242;2022-08-25T00:12:08;23.90;52.50
21502;DHT22;27639;48.674;9.242;2022-08-25T00:14:36;23.80;52.50
21502;DHT22;27639;48.674;9.242;2022-08-25T00:17:03;23.80;52.70
21502;DHT22;27639;48.674;9.242;2022-08-25T00:19:31;23.70;52.60
21502;DHT22;27639;48.674;9.242;2022-08-25T00:21:58;23.70;53.40
21502;DHT22;27639;48.674;9.242;2022-08-25T00:24:25;23.70;52.90
21502;DHT22;27639;48.674;9.242;2022-08-25T00:26:54;23.60;52.80
21502;DHT22;27639;48.674;9.242;2022-08-25T00:29:22;23.50;52.90
21502;DHT22;27639;48.674;9.242;2022-08-25T00:31:50;23.50;53.00
21502;DHT22;27639;48.674;9.242;2022-08-25T00:34:19;23.50;53.00
21502;DHT22;27639;48.674;9.242;2022-08-25T00:36:47;23.50;53.00
21502;DHT22;27639;48.674;9.242;2022-08-25T00:39:16;23.50;53.10
21502;DHT22;27639;48.674;9.242;2022-08-25T00:41:42;23.50;53.20
21502;DHT22;27639;48.674;9.242;2022-08-25T00:44:11;23.40;53.10
21502;DHT22;27639;48.674;9.242;2022-08-25T00:46:43;23.40;53.20
21502;DHT22;27639;48.674;9.242;2022-08-25T00:49:16;23.40;53.10
21502;DHT22;27639;48.674;9.242;2022-08-25T00:51:49;23.40;53.20
21502;DHT22;27639;48.674;9.242;2022-08-25T00:54:19;23.40;53.20
21502;DHT22;27639;48.674;9.242;2022-08-25T00:56:48;23.40;53.10
21502;DHT22;27639;48.674;9.242;2022-08-25T00:59:16;23.40;53.10
21502;DHT22;27639;48.674;9.242;2022-08-25T01:01:43;23.40;53.20
21502;DHT22;27639;48.674;9.242;2022-08-25T01:04:08;23.30;53.30
21502;DHT22;27639;48.674;9.242;2022-08-25T01:06:36;23.20;53.50
21502;DHT22;27639;48.674;9.242;2022-08-25T01:09:04;23.20;53.60
21502;DHT22;27639;48.674;9.242;2022-08-25T01:11:32;23.10;53.50
21502;DHT22;27639;48.674;9.242;2022-08-25T01:13:59;23.10;53.50
21502;DHT22;27639;48.674;9.242;2022-08-25T01:16:28;23.00;53.50
21502;DHT22;27639;48.674;9.242;2022-08-25T01:18:56;23.00;53.70
21502;DHT22;27639;48.674;9.242;2022-08-25T01:21:24;22.90;53.70
21502;DHT22;27639;48.674;9.242;2022-08-25T01:23:50;22.90;53.80
21502;DHT22;27639;48.674;9.242;2022-08-25T01:26:22;22.90;53.80
21502;DHT22;27639;48.674;9.242;2022-08-25T01:28:49;22.90;53.70
21502;DHT22;27639;48.674;9.242;2022-08-25T01:31:36;23.00;53.80
21502;DHT22;27639;48.674;9.242;2022-08-25T01:34:03;22.90;53.70
21502;DHT22;27639;48.674;9.242;2022-08-25T01:36:29;22.90;53.90
21502;DHT22;27639;48.674;9.242;2022-08-25T01:38:55;22.90;53.90
21502;DHT22;27639;48.674;9.242;2022-08-25T01:43:59;22.90;53.90
21502;DHT22;27639;48.674;9.242;2022-08-25T01:46:26;22.90;54.00
21502;DHT22;27639;48.674;9.242;2022-08-25T01:48:52;22.90;54.10
21502;DHT22;27639;48.674;9.242;2022-08-25T01:51:24;22.90;54.10
21502;DHT22;27639;48.674;9.242;2022-08-25T01:53:50;22.90;54.00
21502;DHT22;27639;48.674;9.242;2022-08-25T01:56:16;22.90;54.10
21502;DHT22;27639;48.674;9.242;2022-08-25T01:58:45;22.90;54.10
21502;DHT22;27639;48.674;9.242;2022-08-25T02:01:17;22.90;54.10
21502;DHT22;27639;48.674;9.242;2022-08-25T02:03:46;22.90;54.70
21502;DHT22;27639;48.674;9.242;2022-08-25T02:06:19;22.80;54.10
21502;DHT22;27639;48.674;9.242;2022-08-25T02:08:45;22.80;54.20
21502;DHT22;27639;48.674;9.242;2022-08-25T02:11:14;22.80;54.20
21502;DHT22;27639;48.674;9.242;2022-08-25T02:13:41;22.90;54.20
21502;DHT22;27639;48.674;9.242;2022-08-25T02:16:08;22.90;54.20
21502;DHT22;27639;48.674;9.242;2022-08-25T02:18:35;22.80;54.10
21502;DHT22;27639;48.674;9.242;2022-08-25T02:21:00;22.80;54.40
21502;DHT22;27639;48.674;9.242;2022-08-25T02:23:27;22.70;54.30
21502;DHT22;27639;48.674;9.242;2022-08-25T02:25:52;22.70;54.30
21502;DHT22;27639;48.674;9.242;2022-08-25T02:28:18;22.70;54.40
21502;DHT22;27639;48.674;9.242;2022-08-25T02:30:44;22.70;54.30
21502;DHT22;27639;48.674;9.242;2022-08-25T02:33:10;22.70;54.40
21502;DHT22;27639;48.674;9.242;2022-08-25T02:35:36;22.60;54.40
21502;DHT22;27639;48.674;9.242;2022-08-25T02:38:03;22.50;54.50
21502;DHT22;27639;48.674;9.242;2022-08-25T02:40:29;22.50;54.60
21502;DHT22;27639;48.674;9.242;2022-08-25T02:42:54;22.40;54.60
21502;DHT22;27639;48.674;9.242;2022-08-25T02:45:21;22.40;54.70
21502;DHT22;27639;48.674;9.242;2022-08-25T02:47:46;22.40;54.80
21502;DHT22;27639;48.674;9.242;2022-08-25T02:50:12;22.30;54.80
21502;DHT22;27639;48.674;9.242;2022-08-25T02:52:38;22.30;55.00
21502;DHT22;27639;48.674;9.242;2022-08-25T02:55:07;22.30;55.00
21502;DHT22;27639;48.674;9.242;2022-08-25T02:57:33;22.20;55.00
21502;DHT22;27639;48.674;9.242;2022-08-25T03:00:00;22.20;55.00
21502;DHT22;27639;48.674;9.242;2022-08-25T03:02:26;22.20;55.10
21502;DHT22;27639;48.674;9.242;2022-08-25T03:04:52;22.10;55.20
21502;DHT22;27639;48.674;9.242;2022-08-25T03:07:19;22.10;55.20
21502;DHT22;27639;48.674;9.242;2022-08-25T03:09:45;22.10;55.20
21502;DHT22;27639;48.674;9.242;2022-08-25T03:12:11;22.00;55.30
21502;DHT22;27639;48.674;9.242;2022-08-25T03:14:38;22.10;55.40
21502;DHT22;27639;48.674;9.242;2022-08-25T03:17:04;22.00;55.40
21502;DHT22;27639;48.674;9.242;2022-08-25T03:19:30;22.00;55.40
21502;DHT22;27639;48.674;9.242;2022-08-25T03:21:56;22.00;55.50
21502;DHT22;27639;48.674;9.242;2022-08-25T03:24:22;22.00;55.50
21502;DHT22;27639;48.674;9.242;2022-08-25T03:26:48;22.00;55.60
21502;DHT22;27639;48.674;9.242;2022-08-25T03:29:31;21.90;55.60
21502;DHT22;27639;48.674;9.242;2022-08-25T03:31:57;21.90;56.30
21502;DHT22;27639;48.674;9.242;2022-08-25T03:34:24;21.90;55.80
21502;DHT22;27639;48.674;9.242;2022-08-25T03:36:51;21.90;56.40
21502;DHT22;27639;48.674;9.242;2022-08-25T03:39:18;22.00;55.90
21502;DHT22;27639;48.674;9.242;2022-08-25T03:41:45;22.00;55.90
21502;DHT22;27639;48.674;9.242;2022-08-25T03:44:12;21.90;55.80
21502;DHT22;27639;48.674;9.242;2022-08-25T03:46:45;21.90;55.80
21502;DHT22;27639;48.674;9.242;2022-08-25T03:49:14;21.90;55.90
21502;DHT22;27639;48.674;9.242;2022-08-25T03:51:43;21.90;55.90
21502;DHT22;27639;48.674;9.242;2022-08-25T03:54:13;21.90;55.90
21502;DHT22;27639;48.674;9.242;2022-08-25T03:56:40;21.90;55.90
21502;DHT22;27639;48.674;9.242;2022-08-25T03:59:06;22.00;56.00
21502;DHT22;27639;48.674;9.242;2022-08-25T04:01:39;22.00;55.90
21502;DHT22;27639;48.674;9.242;2022-08-25T04:04:07;22.00;55.90
21502;DHT22;27639;48.674;9.242;2022-08-25T04:06:33;22.10;55.90
21502;DHT22;27639;48.674;9.242;2022-08-25T04:08:59;22.10;55.60
21502;DHT22;27639;48.674;9.242;2022-08-25T04:11:26;22.10;55.60
21502;DHT22;27639;48.674;9.242;2022-08-25T04:13:54;22.10;55.50
21502;DHT22;27639;48.674;9.242;2022-08-25T04:16:26;22.10;55.60
21502;DHT22;27639;48.674;9.242;2022-08-25T04:18:53;22.00;55.60
21502;DHT22;27639;48.674;9.242;2022-08-25T04:21:19;21.90;55.60
21502;DHT22;27639;48.674;9.242;2022-08-25T04:23:47;21.90;55.80
21502;DHT22;27639;48.674;9.242;2022-08-25T04:26:19;21.70;55.90
21502;DHT22;27639;48.674;9.242;2022-08-25T04:28:47;21.60;56.00
21502;DHT22;27639;48.674;9.242;2022-08-25T04:31:14;21.50;56.20
21502;DHT22;27639;48.674;9.242;2022-08-25T04:33:40;21.50;56.30
21502;DHT22;27639;48.674;9.242;2022-08-25T04:36:07;21.50;56.50
21502;DHT22;27639;48.674;9.242;2022-08-25T04:38:33;21.50;56.50
21502;DHT22;27639;48.674;9.242;2022-08-25T04:41:01;21.50;56.50
21502;DHT22;27639;48.674;9.242;2022-08-25T04:43:29;21.50;56.60
21502;DHT22;27639;48.674;9.242;2022-08-25T04:45:54;21.60;56.60
21502;DHT22;27639;48.674;9.242;2022-08-25T04:48:20;21.60;57.20
21502;DHT22;27639;48.674;9.242;2022-08-25T04:50:46;21.60;56.60
21502;DHT22;27639;48.674;9.242;2022-08-25T04:53:12;21.70;56.70
21502;DHT22;27639;48.674;9.242;2022-08-25T04:55:46;21.70;56.60
21502;DHT22;27639;48.674;9.242;2022-08-25T04:58:14;21.80;57.20
21502;DHT22;27639;48.674;9.242;2022-08-25T05:00:40;21.80;56.50
21502;DHT22;27639;48.674;9.242;2022-08-25T05:03:07;21.80;56.30
21502;DHT22;27639;48.674;9.242;2022-08-25T05:05:35;21.90;56.40
21502;DHT22;27639;48.674;9.242;2022-08-25T05:08:01;21.90;56.40
21502;DHT22;27639;48.674;9.242;2022-08-25T05:10:27;21.80;56.40
21502;DHT22;27639;48.674;9.242;2022-08-25T05:12:52;21.90;56.50
21502;DHT22;27639;48.674;9.242;2022-08-25T05:15:18;21.90;56.50
21502;DHT22;27639;48.674;9.242;2022-08-25T05:18:02;21.90;56.50
21502;DHT22;27639;48.674;9.242;2022-08-25T05:20:28;22.00;56.50
21502;DHT22;27639;48.674;9.242;2022-08-25T05:22:55;22.10;56.60
21502;DHT22;27639;48.674;9.242;2022-08-25T05:25:22;22.10;56.40
21502;DHT22;27639;48.674;9.242;2022-08-25T05:27:48;22.20;56.30
21502;DHT22;27639;48.674;9.242;2022-08-25T05:30:13;22.30;56.90
21502;DHT22;27639;48.674;9.242;2022-08-25T05:32:39;22.40;56.20
21502;DHT22;27639;48.674;9.242;2022-08-25T05:35:05;22.40;56.10
21502;DHT22;27639;48.674;9.242;2022-08-25T05:37:31;22.50;56.00
21502;DHT22;27639;48.674;9.242;2022-08-25T05:39:57;22.50;56.00
21502;DHT22;27639;48.674;9.242;2022-08-25T05:42:23;22.70;56.20
21502;DHT22;27639;48.674;9.242;2022-08-25T05:44:49;22.70;56.20
21502;DHT22;27639;48.674;9.242;2022-08-25T05:47:15;22.80;56.30
21502;DHT22;27639;48.674;9.242;2022-08-25T05:49:40;22.90;56.30
21502;DHT22;27639;48.674;9.242;2022-08-25T05:52:06;23.20;56.30
21502;DHT22;27639;48.674;9.242;2022-08-25T05:54:32;23.40;56.10
21502;DHT22;27639;48.674;9.242;2022-08-25T05:56:58;23.70;55.90
21502;DHT22;27639;48.674;9.242;2022-08-25T05:59:23;24.00;55.60
21502;DHT22;27639;48.674;9.242;2022-08-25T06:01:49;24.20;55.30
21502;DHT22;27639;48.674;9.242;2022-08-25T06:04:33;24.50;54.90
21502;DHT22;27639;48.674;9.242;2022-08-25T06:06:59;24.60;55.10
21502;DHT22;27639;48.674;9.242;2022-08-25T06:09:25;24.70;54.70
21502;DHT22;27639;48.674;9.242;2022-08-25T06:11:51;24.70;54.20
21502;DHT22;27639;48.674;9.242;2022-08-25T06:14:17;24.60;54.30
21502;DHT22;27639;48.674;9.242;2022-08-25T06:16:43;24.50;54.60
21502;DHT22;27639;48.674;9.242;2022-08-25T06:19:09;24.50;54.60
21502;DHT22;27639;48.674;9.242;2022-08-25T06:21:36;24.60;54.70
21502;DHT22;27639;48.674;9.242;2022-08-25T06:24:04;24.70;54.60
21502;DHT22;27639;48.674;9.242;2022-08-25T06:26:29;24.80;54.50
21502;DHT22;27639;48.674;9.242;2022-08-25T06:28:55;24.90;54.20
21502;DHT22;27639;48.674;9.242;2022-08-25T06:31:21;25.00;54.10
21502;DHT22;27639;48.674;9.242;2022-08-25T06:33:47;25.00;53.80
21502;DHT22;27639;48.674;9.242;2022-08-25T06:36:13;25.10;53.80
21502;DHT22;27639;48.674;9.242;2022-08-25T06:38:39;25.20;53.80
21502;DHT22;27639;48.674;9.242;2022-08-25T06:41:06;25.20;53.80
21502;DHT22;27639;48.674;9.242;2022-08-25T06:43:33;25.40;53.70
21502;DHT22;27639;48.674;9.242;2022-08-25T06:46:10;25.50;53.50
21502;DHT22;27639;48.674;9.242;2022-08-25T06:48:35;25.50;53.20
21502;DHT22;27639;48.674;9.242;2022-08-25T06:51:05;25.70;53.90
21502;DHT22;27639;48.674;9.242;2022-08-25T06:53:31;25.80;53.20
21502;DHT22;27639;48.674;9.242;2022-08-25T06:55:57;25.90;53.00
21502;DHT22;27639;48.674;9.242;2022-08-25T06:58:23;26.10;52.80
21502;DHT22;27639;48.674;9.242;2022-08-25T07:00:49;26.10;52.60
21502;DHT22;27639;48.674;9.242;2022-08-25T07:03:15;26.30;52.30
21502;DHT22;27639;48.674;9.242;2022-08-25T07:05:40;26.40;52.10
21502;DHT22;27639;48.674;9.242;2022-08-25T07:08:06;26.50;51.90
21502;DHT22;27639;48.674;9.242;2022-08-25T07:10:32;26.50;51.90
21502;DHT22;27639;48.674;9.242;2022-08-25T07:12:57;26.60;52.00
21502;DHT22;27639;48.674;9.242;2022-08-25T07:15:23;26.60;51.50
21502;DHT22;27639;48.674;9.242;2022-08-25T07:17:49;26.50;51.40
21502;DHT22;27639;48.674;9.242;2022-08-25T07:20:15;26.50;51.70
21502;DHT22;27639;48.674;9.242;2022-08-25T07:22:41;26.50;51.40
21502;DHT22;27639;48.674;9.242;2022-08-25T07:25:08;26.40;52.10
21502;DHT22;27639;48.674;9.242;2022-08-25T07:27:35;26.40;51.70
21502;DHT22;27639;48.674;9.242;2022-08-25T07:30:02;26.40;52.00
21502;DHT22;27639;48.674;9.242;2022-08-25T07:32:27;26.50;51.90
21502;DHT22;27639;48.674;9.242;2022-08-25T07:34:53;26.50;52.00
21502;DHT22;27639;48.674;9.242;2022-08-25T07:37:38;26.60;52.00
21502;DHT22;27639;48.674;9.242;2022-08-25T07:40:05;26.70;51.50
21502;DHT22;27639;48.674;9.242;2022-08-25T07:42:31;26.70;51.60
21502;DHT22;27639;48.674;9.242;2022-08-25T07:44:56;26.80;51.30
21502;DHT22;27639;48.674;9.242;2022-08-25T07:47:22;26.60;51.90
21502;DHT22;27639;48.674;9.242;2022-08-25T07:49:48;26.60;52.10
21502;DHT22;27639;48.674;9.242;2022-08-25T07:52:14;26.70;51.60
21502;DHT22;27639;48.674;9.242;2022-08-25T07:54:40;26.70;52.40
21502;DHT22;27639;48.674;9.242;2022-08-25T07:57:07;26.60;52.20
21502;DHT22;27639;48.674;9.242;2022-08-25T07:59:34;26.60;52.10
21502;DHT22;27639;48.674;9.242;2022-08-25T08:01:59;26.60;52.20
21502;DHT22;27639;48.674;9.242;2022-08-25T08:04:25;26.70;52.30
21502;DHT22;27639;48.674;9.242;2022-08-25T08:06:51;26.80;52.10
21502;DHT22;27639;48.674;9.242;2022-08-25T08:09:16;27.00;51.90
21502;DHT22;27639;48.674;9.242;2022-08-25T08:11:42;27.00;52.10
21502;DHT22;27639;48.674;9.242;2022-08-25T08:14:09;27.20;51.00
21502;DHT22;27639;48.674;9.242;2022-08-25T08:16:36;27.00;51.20
21502;DHT22;27639;48.674;9.242;2022-08-25T08:19:03;27.00;51.20
21502;DHT22;27639;48.674;9.242;2022-08-25T08:21:31;26.80;51.20
21502;DHT22;27639;48.674;9.242;2022-08-25T08:23:58;27.00;51.00
21502;DHT22;27639;48.674;9.242;2022-08-25T08:26:25;27.20;50.80
21502;DHT22;27639;48.674;9.242;2022-08-25T08:28:51;27.20;50.80
21502;DHT22;27639;48.674;9.242;2022-08-25T08:31:22;27.40;50.70
21502;DHT22;27639;48.674;9.242;2022-08-25T08:33:49;27.50;51.30
21502;DHT22;27639;48.674;9.242;2022-08-25T08:36:16;27.60;50.30
21502;DHT22;27639;48.674;9.242;2022-08-25T08:38:43;27.70;50.50
21502;DHT22;27639;48.674;9.242;2022-08-25T08:47:03;27.80;50.10
21502;DHT22;27639;48.674;9.242;2022-08-25T08:52:15;28.10;49.40
21502;DHT22;27639;48.674;9.242;2022-08-25T08:54:44;28.20;49.50
21502;DHT22;27639;48.674;9.242;2022-08-25T08:57:17;28.30;49.40
21502;DHT22;27639;48.674;9.242;2022-08-25T08:59:49;28.50;49.30
21502;DHT22;27639;48.674;9.242;2022-08-25T09:05:11;28.60;48.30
21502;DHT22;27639;48.674;9.242;2022-08-25T09:07:44;28.60;48.90
21502;DHT22;27639;48.674;9.242;2022-08-25T09:10:14;28.50;49.10
21502;DHT22;27639;48.674;9.242;2022-08-25T09:13:23;28.50;48.90
21502;DHT22;27639;48.674;9.242;2022-08-25T09:16:07;28.60;48.60
21502;DHT22;27639;48.674;9.242;2022-08-25T09:21:29;28.90;48.00
21502;DHT22;27639;48.674;9.242;2022-08-25T09:24:20;28.90;48.20
21502;DHT22;27639;48.674;9.242;2022-08-25T09:27:16;28.90;48.10
21502;DHT22;27639;48.674;9.242;2022-08-25T09:32:34;29.10;47.10
21502;DHT22;27639;48.674;9.242;2022-08-25T09:35:00;29.10;47.20
21502;DHT22;27639;48.674;9.242;2022-08-25T09:37:27;29.10;47.40
21502;DHT22;27639;48.674;9.242;2022-08-25T09:39:52;29.10;46.70
21502;DHT22;27639;48.674;9.242;2022-08-25T09:42:19;29.20;46.80
21502;DHT22;27639;48.674;9.242;2022-08-25T09:44:46;29.30;46.90
21502;DHT22;27639;48.674;9.242;2022-08-25T09:49:58;29.60;46.10
21502;DHT22;27639;48.674;9.242;2022-08-25T09:52:35;29.60;46.10
21502;DHT22;27639;48.674;9.242;2022-08-25T10:00:30;29.70;45.70
21502;DHT22;27639;48.674;9.242;2022-08-25T10:05:34;29.70;45.50
21502;DHT22;27639;48.674;9.242;2022-08-25T10:08:11;29.70;45.60
21502;DHT22;27639;48.674;9.242;2022-08-25T10:10:43;29.70;45.50
21502;DHT22;27639;48.674;9.242;2022-08-25T10:13:19;29.80;45.20
21502;DHT22;27639;48.674;9.242;2022-08-25T10:15:46;29.70;45.30
21502;DHT22;27639;48.674;9.242;2022-08-25T10:18:28;29.90;45.40
21502;DHT22;27639;48.674;9.242;2022-08-25T10:21:00;30.00;44.40
21502;DHT22;27639;48.674;9.242;2022-08-25T10:23:27;30.00;44.60
21502;DHT22;27639;48.674;9.242;2022-08-25T10:25:54;30.10;44.30
21502;DHT22;27639;48.674;9.242;2022-08-25T10:28:46;30.00;44.30
21502;DHT22;27639;48.674;9.242;2022-08-25T10:31:45;29.90;44.60
21502;DHT22;27639;48.674;9.242;2022-08-25T10:37:14;30.10;43.50
21502;DHT22;27639;48.674;9.242;2022-08-25T10:39:55;30.20;43.80
21502;DHT22;27639;48.674;9.242;2022-08-25T10:50:51;30.30;43.40
21502;DHT22;27639;48.674;9.242;2022-08-25T10:56:25;30.60;43.10
21502;DHT22;27639;48.674;9.242;2022-08-25T11:04:35;30.50;43.00
21502;DHT22;27639;48.674;9.242;2022-08-25T11:07:37;30.60;42.60
21502;DHT22;27639;48.674;9.242;2022-08-25T11:10:09;30.50;43.00
21502;DHT22;27639;48.674;9.242;2022-08-25T11:13:02;30.50;43.00
21502;DHT22;27639;48.674;9.242;2022-08-25T11:15:36;30.60;43.10
21502;DHT22;27639;48.674;9.242;2022-08-25T11:18:09;30.80;42.90
21502;DHT22;27639;48.674;9.242;2022-08-25T11:21:00;30.90;42.40
21502;DHT22;27639;48.674;9.242;2022-08-25T11:23:45;31.00;42.20
21502;DHT22;27639;48.674;9.242;2022-08-25T11:26:14;31.10;41.20
21502;DHT22;27639;48.674;9.242;2022-08-25T11:31:23;31.10;41.10
21502;DHT22;27639;48.674;9.242;2022-08-25T11:33:50;31.10;41.00
21502;DHT22;27639;48.674;9.242;2022-08-25T11:36:36;31.10;41.30
21502;DHT22;27639;48.674;9.242;2022-08-25T11:44:43;31.20;41.40
21502;DHT22;27639;48.674;9.242;2022-08-25T11:50:00;31.30;41.10
21502;DHT22;27639;48.674;9.242;2022-08-25T11:57:52;31.40;40.20
21502;DHT22;27639;48.674;9.242;2022-08-25T12:00:41;31.50;40.20
21502;DHT22;27639;48.674;9.242;2022-08-25T12:06:20;31.40;39.60
21502;DHT22;27639;48.674;9.242;2022-08-25T12:11:51;31.40;40.00
21502;DHT22;27639;48.674;9.242;2022-08-25T12:38:24;31.60;39.60
21502;DHT22;27639;48.674;9.242;2022-08-25T12:41:00;31.70;40.10
21502;DHT22;27639;48.674;9.242;2022-08-25T12:43:36;31.80;39.80
21502;DHT22;27639;48.674;9.242;2022-08-25T12:51:25;32.10;38.70
21502;DHT22;27639;48.674;9.242;2022-08-25T12:53:58;32.20;38.70
21502;DHT22;27639;48.674;9.242;2022-08-25T13:06:59;32.30;38.70
21502;DHT22;27639;48.674;9.242;2022-08-25T13:12:18;32.20;38.00
21502;DHT22;27639;48.674;9.242;2022-08-25T13:14:51;32.10;38.40
21502;DHT22;27639;48.674;9.242;2022-08-25T13:17:34;32.10;38.60
21502;DHT22;27639;48.674;9.242;2022-08-25T13:22:38;32.00;38.10
21502;DHT22;27639;48.674;9.242;2022-08-25T13:25:04;31.90;38.40
21502;DHT22;27639;48.674;9.242;2022-08-25T13:27:32;32.00;37.90
21502;DHT22;27639;48.674;9.242;2022-08-25T13:29:59;32.10;38.00
21502;DHT22;27639;48.674;9.242;2022-08-25T13:32:30;32.10;38.00
21502;DHT22;27639;48.674;9.242;2022-08-25T13:35:23;32.10;38.30
21502;DHT22;27639;48.674;9.242;2022-08-25T13:37:49;32.20;38.40
21502;DHT22;27639;48.674;9.242;2022-08-25T13:42:43;32.30;38.20
21502;DHT22;27639;48.674;9.242;2022-08-25T13:45:23;32.40;38.00
21502;DHT22;27639;48.674;9.242;2022-08-25T13:47:50;32.40;37.70
21502;DHT22;27639;48.674;9.242;2022-08-25T13:50:27;32.50;37.90
21502;DHT22;27639;48.674;9.242;2022-08-25T13:52:59;32.50;37.70
21502;DHT22;27639;48.674;9.242;2022-08-25T13:58:14;32.40;37.10
21502;DHT22;27639;48.674;9.242;2022-08-25T14:01:06;32.30;37.10
21502;DHT22;27639;48.674;9.242;2022-08-25T14:03:40;32.20;37.20
21502;DHT22;27639;48.674;9.242;2022-08-25T14:08:37;32.20;37.40
21502;DHT22;27639;48.674;9.242;2022-08-25T14:13:35;32.10;37.50
21502;DHT22;27639;48.674;9.242;2022-08-25T14:18:36;32.20;37.60
21502;DHT22;27639;48.674;9.242;2022-08-25T14:21:09;32.30;37.00
21502;DHT22;27639;48.674;9.242;2022-08-25T14:23:36;32.20;37.20
21502;DHT22;27639;48.674;9.242;2022-08-25T14:26:03;32.20;37.40
21502;DHT22;27639;48.674;9.242;2022-08-25T14:28:29;32.20;37.30
21502;DHT22;27639;48.674;9.242;2022-08-25T14:33:29;32.20;37.30
21502;DHT22;27639;48.674;9.242;2022-08-25T14:35:58;32.20;37.30
21502;DHT22;27639;48.674;9.242;2022-08-25T14:38:24;32.20;37.40
21502;DHT22;27639;48.674;9.242;2022-08-25T14:40:51;32.30;37.40
21502;DHT22;27639;48.674;9.242;2022-08-25T14:43:18;32.40;37.30
21502;DHT22;27639;48.674;9.242;2022-08-25T14:45:45;32.50;37.20
21502;DHT22;27639;48.674;9.242;2022-08-25T14:48:34;32.50;36.90
21502;DHT22;27639;48.674;9.242;2022-08-25T14:51:03;32.40;36.90
21502;DHT22;27639;48.674;9.242;2022-08-25T14:53:28;32.40;36.80
21502;DHT22;27639;48.674;9.242;2022-08-25T14:55:54;32.50;36.70
21502;DHT22;27639;48.674;9.242;2022-08-25T14:58:21;32.50;36.20
21502;DHT22;27639;48.674;9.242;2022-08-25T15:00:47;32.50;36.20
21502;DHT22;27639;48.674;9.242;2022-08-25T15:03:17;32.40;36.30
21502;DHT22;27639;48.674;9.242;2022-08-25T15:05:45;32.30;36.40
21502;DHT22;27639;48.674;9.242;2022-08-25T15:08:11;32.40;36.60
21502;DHT22;27639;48.674;9.242;2022-08-25T15:10:55;32.40;36.40
21502;DHT22;27639;48.674;9.242;2022-08-25T15:13:22;32.30;36.50
21502;DHT22;27639;48.674;9.242;2022-08-25T15:15:48;32.30;36.80
21502;DHT22;27639;48.674;9.242;2022-08-25T15:18:15;32.30;36.80
21502;DHT22;27639;48.674;9.242;2022-08-25T15:20:41;32.30;36.80
21502;DHT22;27639;48.674;9.242;2022-08-25T15:23:07;32.40;36.70
21502;DHT22;27639;48.674;9.242;2022-08-25T15:25:33;32.40;36.80
21502;DHT22;27639;48.674;9.242;2022-08-25T15:28:03;32.40;36.40
21502;DHT22;27639;48.674;9.242;2022-08-25T15:30:29;32.40;36.30
21502;DHT22;27639;48.674;9.242;2022-08-25T15:32:55;32.50;36.20
21502;DHT22;27639;48.674;9.242;2022-08-25T15:35:20;32.40;35.70
21502;DHT22;27639;48.674;9.242;2022-08-25T15:37:46;32.30;36.00
21502;DHT22;27639;48.674;9.242;2022-08-25T15:40:13;32.20;36.00
21502;DHT22;27639;48.674;9.242;2022-08-25T15:42:38;32.20;36.30
21502;DHT22;27639;48.674;9.242;2022-08-25T15:45:04;32.10;36.40
21502;DHT22;27639;48.674;9.242;2022-08-25T15:47:31;32.10;36.70
21502;DHT22;27639;48.674;9.242;2022-08-25T15:50:04;32.00;36.40
21502;DHT22;27639;48.674;9.242;2022-08-25T15:52:31;32.00;36.60
21502;DHT22;27639;48.674;9.242;2022-08-25T15:54:56;32.10;36.50
21502;DHT22;27639;48.674;9.242;2022-08-25T15:57:22;32.10;36.50
21502;DHT22;27639;48.674;9.242;2022-08-25T15:59:47;32.10;36.50
21502;DHT22;27639;48.674;9.242;2022-08-25T16:02:13;32.10;36.60
21502;DHT22;27639;48.674;9.242;2022-08-25T16:04:38;32.10;36.70
21502;DHT22;27639;48.674;9.242;2022-08-25T16:07:04;32.10;36.10
21502;DHT22;27639;48.674;9.242;2022-08-25T16:09:30;32.00;36.50
21502;DHT22;27639;48.674;9.242;2022-08-25T16:11:56;32.00;36.50
21502;DHT22;27639;48.674;9.242;2022-08-25T16:14:21;32.00;36.60
21502;DHT22;27639;48.674;9.242;2022-08-25T16:16:47;31.90;36.70
21502;DHT22;27639;48.674;9.242;2022-08-25T16:19:13;32.00;36.90
21502;DHT22;27639;48.674;9.242;2022-08-25T16:21:39;32.00;36.30
21502;DHT22;27639;48.674;9.242;2022-08-25T16:24:06;31.90;36.50
21502;DHT22;27639;48.674;9.242;2022-08-25T16:26:32;31.90;36.80
21502;DHT22;27639;48.674;9.242;2022-08-25T16:29:01;31.90;36.70
21502;DHT22;27639;48.674;9.242;2022-08-25T16:31:26;31.90;36.70
21502;DHT22;27639;48.674;9.242;2022-08-25T16:33:52;31.90;37.50
21502;DHT22;27639;48.674;9.242;2022-08-25T16:36:21;31.80;36.80
21502;DHT22;27639;48.674;9.242;2022-08-25T16:38:47;31.80;36.80
21502;DHT22;27639;48.674;9.242;2022-08-25T16:41:19;31.90;36.70
21502;DHT22;27639;48.674;9.242;2022-08-25T16:43:46;31.90;36.80
21502;DHT22;27639;48.674;9.242;2022-08-25T16:46:15;31.80;36.80
21502;DHT22;27639;48.674;9.242;2022-08-25T16:48:42;31.80;36.90
21502;DHT22;27639;48.674;9.242;2022-08-25T16:51:13;31.80;37.20
21502;DHT22;27639;48.674;9.242;2022-08-25T16:53:39;31.90;37.10
21502;DHT22;27639;48.674;9.242;2022-08-25T16:56:24;31.90;37.10
21502;DHT22;27639;48.674;9.242;2022-08-25T16:58:55;31.90;37.20
21502;DHT22;27639;48.674;9.242;2022-08-25T17:01:21;31.80;37.40
21502;DHT22;27639;48.674;9.242;2022-08-25T17:03:50;31.70;37.60
21502;DHT22;27639;48.674;9.242;2022-08-25T17:06:16;31.70;37.70
21502;DHT22;27639;48.674;9.242;2022-08-25T17:08:42;31.70;37.70
21502;DHT22;27639;48.674;9.242;2022-08-25T17:11:19;31.70;37.70
21502;DHT22;27639;48.674;9.242;2022-08-25T17:13:48;31.70;37.70
21502;DHT22;27639;48.674;9.242;2022-08-25T17:16:15;31.80;37.80
21502;DHT22;27639;48.674;9.242;2022-08-25T17:18:42;31.70;37.70
21502;DHT22;27639;48.674;9.242;2022-08-25T17:21:11;31.70;37.70
21502;DHT22;27639;48.674;9.242;2022-08-25T17:23:38;31.70;37.70
21502;DHT22;27639;48.674;9.242;2022-08-25T17:26:05;31.70;37.70
21502;DHT22;27639;48.674;9.242;2022-08-25T17:28:31;31.70;37.70
21502;DHT22;27639;48.674;9.242;2022-08-25T17:30:57;31.70;37.70
21502;DHT22;27639;48.674;9.242;2022-08-25T17:33:23;31.70;37.80
21502;DHT22;27639;48.674;9.242;2022-08-25T17:35:51;31.70;38.00
21502;DHT22;27639;48.674;9.242;2022-08-25T17:38:18;31.70;38.10
21502;DHT22;27639;48.674;9.242;2022-08-25T17:40:45;31.60;38.10
21502;DHT22;27639;48.674;9.242;2022-08-25T17:43:12;31.60;38.20
21502;DHT22;27639;48.674;9.242;2022-08-25T17:45:39;31.50;38.30
21502;DHT22;27639;48.674;9.242;2022-08-25T17:48:07;31.40;38.30
21502;DHT22;27639;48.674;9.242;2022-08-25T17:50:34;31.50;38.30
21502;DHT22;27639;48.674;9.242;2022-08-25T17:53:01;31.40;38.40